sensor_id;sensor_type;location;lat;lon;timestamp;temperature;humidity
32322;DHT22;61553;48.994;8.940;2022-11-13T00:00:08;3.50;99.90
32322;DHT22;61553;48.994;8.940;2022-11-13T00:02:34;3.60;99.90
32322;DHT22;61553;48.994;8.940;2022-11-13T00:04:59;3.60;99.90
32322;DHT22;61553;48.994;8.940;2022-11-13T00:07:26;3.60;99.90
32322;DHT22;61553;48.994;8.940;2022-11-13T00:09:52;3.50;99.90
32322;DHT22;61553;48.994;8.940;2022-11-13T00:12:19;3.60;99.90
32322;DHT22;61553;48.994;8.940;2022-11-13T00:14:44;3.50;99.90
32322;DHT22;61553;48.994;8.940;2022-11-13T00:17:10;3.50;99.90
32322;DHT22;61553;48.994;8.940;2022-11-13T00:19:36;3.50;99.90
32322;DHT22;61553;48.994;8.940;2022-11-13T00:22:01;3.40;99.90
32322;DHT22;61553;48.994;8.940;2022-11-13T00:24:27;3.40;99.90
32322;DHT22;61553;48.994;8.940;2022-11-13T00:26:53;3.40;99.90
32322;DHT22;61553;48.994;8.940;2022-11-13T00:29:18;3.40;99.90
32322;DHT22;61553;48.994;8.940;2022-11-13T00:31:44;3.40;99.90
32322;DHT22;61553;48.994;8.940;2022-11-13T00:34:10;3.40;99.90
32322;DHT22;61553;48.994;8.940;2022-11-13T00:36:35;3.40;99.90
32322;DHT22;61553;48.994;8.940;2022-11-13T00:39:01;3.40;99.90
32322;DHT22;61553;48.994;8.940;2022-11-13T00:41:27;3.40;99.90
32322;DHT22;61553;48.994;8.940;2022-11-13T00:43:52;3.40;99.90
32322;DHT22;61553;48.994;8.940;2022-11-13T00:46:18;3.40;99.90
32322;DHT22;61553;48.994;8.940;2022-11-13T00:48:44;3.40;99.90
32322;DHT22;61553;48.994;8.940;2022-11-13T00:51:10;3.40;99.90
32322;DHT22;61553;48.994;8.940;2022-11-13T00:53:35;3.40;99.90
32322;DHT22;61553;48.994;8.940;2022-11-13T00:56:01;3.40;99.90
32322;DHT22;61553;48.994;8.940;2022-11-13T00:58:28;3.40;99.90
32322;DHT22;61553;48.994;8.940;2022-11-13T01:00:54;3.40;99.90
32322;DHT22;61553;48.994;8.940;2022-11-13T01:03:20;3.40;99.90
32322;DHT22;61553;48.994;8.940;2022-11-13T01:05:46;3.30;99.90
32322;DHT22;61553;48.994;8.940;2022-11-13T01:08:13;3.30;99.90
32322;DHT22;61553;48.994;8.940;2022-11-13T01:10:42;3.30;99.90
32322;DHT22;61553;48.994;8.940;2022-11-13T01:13:08;3.30;99.90
32322;DHT22;61553;48.994;8.940;2022-11-13T01:15:38;3.20;99.90
32322;DHT22;61553;48.994;8.940;2022-11-13T01:18:03;3.20;99.90
32322;DHT22;61553;48.994;8.940;2022-11-13T01:20:29;3.20;99.90
32322;DHT22;61553;48.994;8.940;2022-11-13T01:22:55;3.30;99.90
32322;DHT22;61553;48.994;8.940;2022-11-13T01:25:20;3.30;99.90
32322;DHT22;61553;48.994;8.940;2022-11-13T01:27:46;3.20;99.90
32322;DHT22;61553;48.994;8.940;2022-11-13T01:30:11;3.20;99.90
32322;DHT22;61553;48.994;8.940;2022-11-13T01:32:37;3.20;99.90
32322;DHT22;61553;48.994;8.940;2022-11-13T01:35:03;3.20;99.90
32322;DHT22;61553;48.994;8.940;2022-11-13T01:37:29;3.20;99.90
32322;DHT22;61553;48.994;8.940;2022-11-13T01:39:54;3.10;99.90
32322;DHT22;61553;48.994;8.940;2022-11-13T01:42:20;3.10;99.90
32322;DHT22;61553;48.994;8.940;2022-11-13T01:44:53;3.10;99.90
32322;DHT22;61553;48.994;8.940;2022-11-13T01:47:18;3.10;99.90
32322;DHT22;61553;48.994;8.940;2022-11-13T01:49:45;3.10;99.90
32322;DHT22;61553;48.994;8.940;2022-11-13T01:52:22;3.10;99.90
32322;DHT22;61553;48.994;8.940;2022-11-13T01:54:52;3.10;99.90
32322;DHT22;61553;48.994;8.940;2022-11-13T01:57:19;3.10;99.90
32322;DHT22;61553;48.994;8.940;2022-11-13T01:59:50;3.00;99.90
32322;DHT22;61553;48.994;8.940;2022-11-13T02:02:17;3.00;99.90
32322;DHT22;61553;48.994;8.940;2022-11-13T02:04:43;2.90;99.90
32322;DHT22;61553;48.994;8.940;2022-11-13T02:07:12;3.00;99.90
32322;DHT22;61553;48.994;8.940;2022-11-13T02:09:41;3.00;99.90
32322;DHT22;61553;48.994;8.940;2022-11-13T02:12:10;3.10;99.90
32322;DHT22;61553;48.994;8.940;2022-11-13T02:14:42;3.00;99.90
32322;DHT22;61553;48.994;8.940;2022-11-13T02:17:14;3.00;99.90
32322;DHT22;61553;48.994;8.940;2022-11-13T02:19:44;2.90;99.90
32322;DHT22;61553;48.994;8.940;2022-11-13T02:22:28;2.80;99.90
32322;DHT22;61553;48.994;8.940;2022-11-13T02:24:59;2.80;99.90
32322;DHT22;61553;48.994;8.940;2022-11-13T02:27:31;2.80;99.90
32322;DHT22;61553;48.994;8.940;2022-11-13T02:29:58;2.80;99.90
32322;DHT22;61553;48.994;8.940;2022-11-13T02:32:34;2.80;99.90
32322;DHT22;61553;48.994;8.940;2022-11-13T02:35:00;2.80;99.90
32322;DHT22;61553;48.994;8.940;2022-11-13T02:40:47;2.80;99.90
32322;DHT22;61553;48.994;8.940;2022-11-13T02:43:13;2.80;99.90
32322;DHT22;61553;48.994;8.940;2022-11-13T02:45:39;2.80;99.90
32322;DHT22;61553;48.994;8.940;2022-11-13T02:48:06;2.80;99.90
32322;DHT22;61553;48.994;8.940;2022-11-13T02:50:33;2.80;99.90
32322;DHT22;61553;48.994;8.940;2022-11-13T02:53:00;2.80;99.90
32322;DHT22;61553;48.994;8.940;2022-11-13T02:55:25;2.80;99.90
32322;DHT22;61553;48.994;8.940;2022-11-13T02:57:51;2.80;99.90
32322;DHT22;61553;48.994;8.940;2022-11-13T03:00:17;2.90;99.90
32322;DHT22;61553;48.994;8.940;2022-11-13T03:02:42;2.80;99.90
32322;DHT22;61553;48.994;8.940;2022-11-13T03:05:08;2.70;99.90
32322;DHT22;61553;48.994;8.940;2022-11-13T03:07:34;2.60;99.90
32322;DHT22;61553;48.994;8.940;2022-11-13T03:09:59;2.60;99.90
32322;DHT22;61553;48.994;8.940;2022-11-13T03:12:25;2.60;99.90
32322;DHT22;61553;48.994;8.940;2022-11-13T03:14:51;2.50;99.90
32322;DHT22;61553;48.994;8.940;2022-11-13T03:17:17;2.40;99.90
32322;DHT22;61553;48.994;8.940;2022-11-13T03:19:42;2.50;99.90
32322;DHT22;61553;48.994;8.940;2022-11-13T03:22:08;2.40;99.90
32322;DHT22;61553;48.994;8.940;2022-11-13T03:24:33;2.30;99.90
32322;DHT22;61553;48.994;8.940;2022-11-13T03:26:59;2.30;99.90
32322;DHT22;61553;48.994;8.940;2022-11-13T03:29:25;2.30;99.90
32322;DHT22;61553;48.994;8.940;2022-11-13T03:31:50;2.10;99.90
32322;DHT22;61553;48.994;8.940;2022-11-13T03:34:16;2.10;99.90
32322;DHT22;61553;48.994;8.940;2022-11-13T03:36:42;2.00;99.90
32322;DHT22;61553;48.994;8.940;2022-11-13T03:39:09;2.10;99.90
32322;DHT22;61553;48.994;8.940;2022-11-13T03:41:35;2.00;99.90
32322;DHT22;61553;48.994;8.940;2022-11-13T03:44:00;2.00;99.90
32322;DHT22;61553;48.994;8.940;2022-11-13T03:46:26;1.90;99.90
32322;DHT22;61553;48.994;8.940;2022-11-13T03:48:51;1.90;99.90
32322;DHT22;61553;48.994;8.940;2022-11-13T03:51:17;1.90;99.90
32322;DHT22;61553;48.994;8.940;2022-11-13T03:53:43;1.90;99.90
32322;DHT22;61553;48.994;8.940;2022-11-13T03:56:08;1.80;99.90
32322;DHT22;61553;48.994;8.940;2022-11-13T03:58:34;1.80;99.90
32322;DHT22;61553;48.994;8.940;2022-11-13T04:01:00;1.80;99.90
32322;DHT22;61553;48.994;8.940;2022-11-13T04:03:25;1.80;99.90
32322;DHT22;61553;48.994;8.940;2022-11-13T04:05:51;1.80;99.90
32322;DHT22;61553;48.994;8.940;2022-11-13T04:08:17;1.80;99.90
32322;DHT22;61553;48.994;8.940;2022-11-13T04:10:44;1.80;99.90
32322;DHT22;61553;48.994;8.940;2022-11-13T04:13:10;1.80;99.90
32322;DHT22;61553;48.994;8.940;2022-11-13T04:15:36;1.70;99.90
32322;DHT22;61553;48.994;8.940;2022-11-13T04:18:02;1.70;99.90
32322;DHT22;61553;48.994;8.940;2022-11-13T04:20:28;1.60;99.90
32322;DHT22;61553;48.994;8.940;2022-11-13T04:22:55;1.70;99.90
32322;DHT22;61553;48.994;8.940;2022-11-13T04:25:21;1.60;99.90
32322;DHT22;61553;48.994;8.940;2022-11-13T04:27:51;1.60;99.90
32322;DHT22;61553;48.994;8.940;2022-11-13T04:30:17;1.60;99.90
32322;DHT22;61553;48.994;8.940;2022-11-13T04:32:43;1.60;99.90
32322;DHT22;61553;48.994;8.940;2022-11-13T04:35:09;1.60;99.90
32322;DHT22;61553;48.994;8.940;2022-11-13T04:37:34;1.50;99.90
32322;DHT22;61553;48.994;8.940;2022-11-13T04:40:00;1.50;99.90
32322;DHT22;61553;48.994;8.940;2022-11-13T04:42:25;1.60;99.90
32322;DHT22;61553;48.994;8.940;2022-11-13T04:45:09;1.60;99.90
32322;DHT22;61553;48.994;8.940;2022-11-13T04:47:35;1.60;99.90
32322;DHT22;61553;48.994;8.940;2022-11-13T04:50:01;1.60;99.90
32322;DHT22;61553;48.994;8.940;2022-11-13T04:52:27;1.60;99.90
32322;DHT22;61553;48.994;8.940;2022-11-13T04:54:53;1.60;99.90
32322;DHT22;61553;48.994;8.940;2022-11-13T04:57:19;1.60;99.90
32322;DHT22;61553;48.994;8.940;2022-11-13T04:59:44;1.70;99.90
32322;DHT22;61553;48.994;8.940;2022-11-13T05:02:10;1.60;99.90
32322;DHT22;61553;48.994;8.940;2022-11-13T05:04:36;1.50;99.90
32322;DHT22;61553;48.994;8.940;2022-11-13T05:07:01;1.50;99.90
32322;DHT22;61553;48.994;8.940;2022-11-13T05:09:27;1.50;99.90
32322;DHT22;61553;48.994;8.940;2022-11-13T05:11:53;1.50;99.90
32322;DHT22;61553;48.994;8.940;2022-11-13T05:14:18;1.40;99.90
32322;DHT22;61553;48.994;8.940;2022-11-13T05:16:44;1.30;99.90
32322;DHT22;61553;48.994;8.940;2022-11-13T05:19:10;1.30;99.90
32322;DHT22;61553;48.994;8.940;2022-11-13T05:21:36;1.40;99.90
32322;DHT22;61553;48.994;8.940;2022-11-13T05:24:03;1.30;99.90
32322;DHT22;61553;48.994;8.940;2022-11-13T05:26:29;1.20;99.90
32322;DHT22;61553;48.994;8.940;2022-11-13T05:28:59;1.20;99.90
32322;DHT22;61553;48.994;8.940;2022-11-13T05:31:25;1.10;99.90
32322;DHT22;61553;48.994;8.940;2022-11-13T05:33:51;1.00;99.90
32322;DHT22;61553;48.994;8.940;2022-11-13T05:36:18;1.00;99.90
32322;DHT22;61553;48.994;8.940;2022-11-13T05:38:44;0.90;99.90
32322;DHT22;61553;48.994;8.940;2022-11-13T05:41:15;0.90;99.90
32322;DHT22;61553;48.994;8.940;2022-11-13T05:43:41;0.80;99.90
32322;DHT22;61553;48.994;8.940;2022-11-13T05:46:22;0.80;99.90
32322;DHT22;61553;48.994;8.940;2022-11-13T05:48:52;0.80;99.90
32322;DHT22;61553;48.994;8.940;2022-11-13T05:51:21;0.80;99.90
32322;DHT22;61553;48.994;8.940;2022-11-13T05:53:47;0.80;99.90
32322;DHT22;61553;48.994;8.940;2022-11-13T05:56:22;0.80;99.90
32322;DHT22;61553;48.994;8.940;2022-11-13T05:58:49;0.70;99.90
32322;DHT22;61553;48.994;8.940;2022-11-13T06:01:16;0.60;99.90
32322;DHT22;61553;48.994;8.940;2022-11-13T06:03:43;0.50;99.90
32322;DHT22;61553;48.994;8.940;2022-11-13T06:06:11;0.40;99.90
32322;DHT22;61553;48.994;8.940;2022-11-13T06:08:37;0.40;99.90
32322;DHT22;61553;48.994;8.940;2022-11-13T06:11:05;0.40;99.90
32322;DHT22;61553;48.994;8.940;2022-11-13T06:13:32;0.50;99.90
32322;DHT22;61553;48.994;8.940;2022-11-13T06:16:03;0.60;99.90
32322;DHT22;61553;48.994;8.940;2022-11-13T06:18:30;0.50;99.90
32322;DHT22;61553;48.994;8.940;2022-11-13T06:21:00;0.50;99.90
32322;DHT22;61553;48.994;8.940;2022-11-13T06:23:26;0.40;99.90
32322;DHT22;61553;48.994;8.940;2022-11-13T06:25:52;0.30;99.90
32322;DHT22;61553;48.994;8.940;2022-11-13T06:28:23;0.40;99.90
32322;DHT22;61553;48.994;8.940;2022-11-13T06:30:49;0.30;99.90
32322;DHT22;61553;48.994;8.940;2022-11-13T06:33:14;0.30;99.90
32322;DHT22;61553;48.994;8.940;2022-11-13T06:35:40;0.30;99.90
32322;DHT22;61553;48.994;8.940;2022-11-13T06:38:06;0.30;99.90
32322;DHT22;61553;48.994;8.940;2022-11-13T06:40:31;0.40;99.90
32322;DHT22;61553;48.994;8.940;2022-11-13T06:42:57;0.40;99.90
32322;DHT22;61553;48.994;8.940;2022-11-13T06:45:22;0.40;99.90
32322;DHT22;61553;48.994;8.940;2022-11-13T06:47:48;0.40;99.90
32322;DHT22;61553;48.994;8.940;2022-11-13T06:50:14;0.40;99.90
32322;DHT22;61553;48.994;8.940;2022-11-13T06:52:39;0.40;99.90
32322;DHT22;61553;48.994;8.940;2022-11-13T06:55:05;0.40;99.90
32322;DHT22;61553;48.994;8.940;2022-11-13T06:57:31;0.50;99.90
32322;DHT22;61553;48.994;8.940;2022-11-13T06:59:57;0.60;99.90
32322;DHT22;61553;48.994;8.940;2022-11-13T07:02:23;0.60;99.90
32322;DHT22;61553;48.994;8.940;2022-11-13T07:04:48;0.60;99.90
32322;DHT22;61553;48.994;8.940;2022-11-13T07:07:14;0.60;99.90
32322;DHT22;61553;48.994;8.940;2022-11-13T07:09:39;0.60;99.90
32322;DHT22;61553;48.994;8.940;2022-11-13T07:12:05;0.70;99.90
32322;DHT22;61553;48.994;8.940;2022-11-13T07:14:31;0.80;99.90
32322;DHT22;61553;48.994;8.940;2022-11-13T07:16:56;0.90;99.90
32322;DHT22;61553;48.994;8.940;2022-11-13T07:19:22;1.00;99.90
32322;DHT22;61553;48.994;8.940;2022-11-13T07:21:47;1.00;99.90
32322;DHT22;61553;48.994;8.940;2022-11-13T07:24:13;1.10;99.90
32322;DHT22;61553;48.994;8.940;2022-11-13T07:26:39;1.00;99.90
32322;DHT22;61553;48.994;8.940;2022-11-13T07:29:04;1.10;99.90
32322;DHT22;61553;48.994;8.940;2022-11-13T07:31:30;1.20;99.90
32322;DHT22;61553;48.994;8.940;2022-11-13T07:33:56;1.30;99.90
32322;DHT22;61553;48.994;8.940;2022-11-13T07:36:21;1.40;99.90
32322;DHT22;61553;48.994;8.940;2022-11-13T07:38:47;1.60;99.90
32322;DHT22;61553;48.994;8.940;2022-11-13T07:41:13;1.70;99.90
32322;DHT22;61553;48.994;8.940;2022-11-13T07:43:38;1.80;99.90
32322;DHT22;61553;48.994;8.940;2022-11-13T07:46:04;1.80;99.90
32322;DHT22;61553;48.994;8.940;2022-11-13T07:48:30;2.00;99.90
32322;DHT22;61553;48.994;8.940;2022-11-13T07:50:59;2.00;99.90
32322;DHT22;61553;48.994;8.940;2022-11-13T07:53:25;1.90;99.90
32322;DHT22;61553;48.994;8.940;2022-11-13T07:55:51;2.00;99.90
32322;DHT22;61553;48.994;8.940;2022-11-13T07:58:17;2.20;99.90
32322;DHT22;61553;48.994;8.940;2022-11-13T08:00:43;2.20;99.90
32322;DHT22;61553;48.994;8.940;2022-11-13T08:03:12;2.30;99.90
32322;DHT22;61553;48.994;8.940;2022-11-13T08:05:38;2.50;99.90
32322;DHT22;61553;48.994;8.940;2022-11-13T08:08:04;2.60;99.90
32322;DHT22;61553;48.994;8.940;2022-11-13T08:10:30;2.60;99.90
32322;DHT22;61553;48.994;8.940;2022-11-13T08:13:01;2.80;99.90
32322;DHT22;61553;48.994;8.940;2022-11-13T08:15:28;2.90;99.90
32322;DHT22;61553;48.994;8.940;2022-11-13T08:17:58;3.10;99.90
32322;DHT22;61553;48.994;8.940;2022-11-13T08:20:25;3.30;99.90
32322;DHT22;61553;48.994;8.940;2022-11-13T08:22:50;3.40;99.90
32322;DHT22;61553;48.994;8.940;2022-11-13T08:25:17;3.60;99.90
32322;DHT22;61553;48.994;8.940;2022-11-13T08:27:43;3.50;99.90
32322;DHT22;61553;48.994;8.940;2022-11-13T08:30:09;3.60;99.90
32322;DHT22;61553;48.994;8.940;2022-11-13T08:32:35;3.80;99.90
32322;DHT22;61553;48.994;8.940;2022-11-13T08:35:00;3.70;99.90
32322;DHT22;61553;48.994;8.940;2022-11-13T08:37:26;3.80;99.90
32322;DHT22;61553;48.994;8.940;2022-11-13T08:39:52;4.10;99.90
32322;DHT22;61553;48.994;8.940;2022-11-13T08:42:17;4.10;99.90
32322;DHT22;61553;48.994;8.940;2022-11-13T08:44:43;4.20;99.90
32322;DHT22;61553;48.994;8.940;2022-11-13T08:47:08;4.20;99.90
32322;DHT22;61553;48.994;8.940;2022-11-13T08:49:34;4.40;99.90
32322;DHT22;61553;48.994;8.940;2022-11-13T08:52:00;4.50;99.90
32322;DHT22;61553;48.994;8.940;2022-11-13T08:54:25;4.70;99.90
32322;DHT22;61553;48.994;8.940;2022-11-13T08:56:51;4.60;99.90
32322;DHT22;61553;48.994;8.940;2022-11-13T08:59:17;4.70;99.90
32322;DHT22;61553;48.994;8.940;2022-11-13T09:01:43;4.70;99.90
32322;DHT22;61553;48.994;8.940;2022-11-13T09:04:08;4.80;99.90
32322;DHT22;61553;48.994;8.940;2022-11-13T09:06:34;4.90;99.90
32322;DHT22;61553;48.994;8.940;2022-11-13T09:08:59;4.70;99.90
32322;DHT22;61553;48.994;8.940;2022-11-13T09:11:25;4.80;99.90
32322;DHT22;61553;48.994;8.940;2022-11-13T09:13:54;4.90;99.90
32322;DHT22;61553;48.994;8.940;2022-11-13T09:16:20;5.10;99.90
32322;DHT22;61553;48.994;8.940;2022-11-13T09:18:52;5.00;99.90
32322;DHT22;61553;48.994;8.940;2022-11-13T09:21:18;5.20;99.90
32322;DHT22;61553;48.994;8.940;2022-11-13T09:23:43;5.10;99.90
32322;DHT22;61553;48.994;8.940;2022-11-13T09:26:10;5.10;99.90
32322;DHT22;61553;48.994;8.940;2022-11-13T09:28:35;5.10;99.90
32322;DHT22;61553;48.994;8.940;2022-11-13T09:31:05;5.10;99.90
32322;DHT22;61553;48.994;8.940;2022-11-13T09:33:38;5.20;99.90
32322;DHT22;61553;48.994;8.940;2022-11-13T09:36:10;5.20;99.90
32322;DHT22;61553;48.994;8.940;2022-11-13T09:38:36;5.00;99.90
32322;DHT22;61553;48.994;8.940;2022-11-13T09:41:04;4.90;99.90
32322;DHT22;61553;48.994;8.940;2022-11-13T09:44:00;5.10;99.90
32322;DHT22;61553;48.994;8.940;2022-11-13T09:46:46;5.50;99.90
32322;DHT22;61553;48.994;8.940;2022-11-13T09:49:16;5.70;99.90
32322;DHT22;61553;48.994;8.940;2022-11-13T09:51:54;5.70;99.90
32322;DHT22;61553;48.994;8.940;2022-11-13T09:54:21;5.70;99.90
32322;DHT22;61553;48.994;8.940;2022-11-13T10:05:15;6.40;99.90
32322;DHT22;61553;48.994;8.940;2022-11-13T10:12:57;6.90;99.90
32322;DHT22;61553;48.994;8.940;2022-11-13T10:15:25;7.30;99.90
32322;DHT22;61553;48.994;8.940;2022-11-13T10:18:15;7.50;99.90
32322;DHT22;61553;48.994;8.940;2022-11-13T10:20:49;7.60;99.90
32322;DHT22;61553;48.994;8.940;2022-11-13T10:23:29;7.90;99.90
32322;DHT22;61553;48.994;8.940;2022-11-13T10:26:15;8.00;99.90
32322;DHT22;61553;48.994;8.940;2022-11-13T10:28:41;8.00;99.90
32322;DHT22;61553;48.994;8.940;2022-11-13T10:31:10;8.20;99.90
32322;DHT22;61553;48.994;8.940;2022-11-13T10:33:37;8.40;99.90
32322;DHT22;61553;48.994;8.940;2022-11-13T10:36:08;8.40;99.90
32322;DHT22;61553;48.994;8.940;2022-11-13T10:38:52;8.60;99.90
32322;DHT22;61553;48.994;8.940;2022-11-13T10:41:20;9.10;99.90
32322;DHT22;61553;48.994;8.940;2022-11-13T10:46:21;9.20;99.90
32322;DHT22;61553;48.994;8.940;2022-11-13T10:48:47;9.00;99.90
32322;DHT22;61553;48.994;8.940;2022-11-13T10:51:25;9.20;99.90
32322;DHT22;61553;48.994;8.940;2022-11-13T10:53:52;8.90;99.90
32322;DHT22;61553;48.994;8.940;2022-11-13T10:56:28;8.50;99.90
32322;DHT22;61553;48.994;8.940;2022-11-13T10:59:16;8.40;99.90
32322;DHT22;61553;48.994;8.940;2022-11-13T11:01:43;8.50;99.90
32322;DHT22;61553;48.994;8.940;2022-11-13T11:04:19;8.30;99.90
32322;DHT22;61553;48.994;8.940;2022-11-13T11:06:45;8.50;99.90
32322;DHT22;61553;48.994;8.940;2022-11-13T11:09:26;8.70;99.90
32322;DHT22;61553;48.994;8.940;2022-11-13T11:17:35;9.00;99.90
32322;DHT22;61553;48.994;8.940;2022-11-13T11:22:34;9.20;99.90
32322;DHT22;61553;48.994;8.940;2022-11-13T11:25:13;9.30;99.90
32322;DHT22;61553;48.994;8.940;2022-11-13T11:27:45;9.30;99.90
32322;DHT22;61553;48.994;8.940;2022-11-13T11:30:20;9.10;99.90
32322;DHT22;61553;48.994;8.940;2022-11-13T11:35:44;8.80;99.90
32322;DHT22;61553;48.994;8.940;2022-11-13T11:38:29;8.60;99.90
32322;DHT22;61553;48.994;8.940;2022-11-13T11:41:06;8.50;99.90
32322;DHT22;61553;48.994;8.940;2022-11-13T11:43:50;8.40;99.90
32322;DHT22;61553;48.994;8.940;2022-11-13T11:46:22;8.30;99.90
32322;DHT22;61553;48.994;8.940;2022-11-13T11:48:49;8.30;99.90
32322;DHT22;61553;48.994;8.940;2022-11-13T11:51:24;8.30;99.90
32322;DHT22;61553;48.994;8.940;2022-11-13T11:53:56;8.30;99.90
32322;DHT22;61553;48.994;8.940;2022-11-13T12:02:16;8.40;99.90
32322;DHT22;61553;48.994;8.940;2022-11-13T12:20:52;8.60;99.90
32322;DHT22;61553;48.994;8.940;2022-11-13T12:23:29;8.70;99.90
32322;DHT22;61553;48.994;8.940;2022-11-13T12:26:19;8.80;99.90
32322;DHT22;61553;48.994;8.940;2022-11-13T12:31:46;9.10;99.90
32322;DHT22;61553;48.994;8.940;2022-11-13T12:36:58;9.20;99.90
32322;DHT22;61553;48.994;8.940;2022-11-13T12:39:39;9.30;99.90
32322;DHT22;61553;48.994;8.940;2022-11-13T12:47:18;9.70;99.90
32322;DHT22;61553;48.994;8.940;2022-11-13T12:49:43;9.80;99.90
32322;DHT22;61553;48.994;8.940;2022-11-13T12:52:16;9.90;99.90
32322;DHT22;61553;48.994;8.940;2022-11-13T12:54:42;10.00;99.90
32322;DHT22;61553;48.994;8.940;2022-11-13T12:59:56;10.10;99.90
32322;DHT22;61553;48.994;8.940;2022-11-13T13:03:14;10.20;99.90
32322;DHT22;61553;48.994;8.940;2022-11-13T13:08:50;10.20;99.90
32322;DHT22;61553;48.994;8.940;2022-11-13T13:11:24;10.40;99.90
32322;DHT22;61553;48.994;8.940;2022-11-13T13:16:39;10.50;99.90
32322;DHT22;61553;48.994;8.940;2022-11-13T13:19:27;10.50;99.90
32322;DHT22;61553;48.994;8.940;2022-11-13T13:21:53;10.70;99.90
32322;DHT22;61553;48.994;8.940;2022-11-13T13:24:35;10.80;99.90
32322;DHT22;61553;48.994;8.940;2022-11-13T13:27:01;10.80;99.90
32322;DHT22;61553;48.994;8.940;2022-11-13T13:29:44;10.90;99.90
32322;DHT22;61553;48.994;8.940;2022-11-13T13:32:38;10.90;99.90
32322;DHT22;61553;48.994;8.940;2022-11-13T13:35:37;11.00;99.90
32322;DHT22;61553;48.994;8.940;2022-11-13T13:38:41;11.00;99.90
32322;DHT22;61553;48.994;8.940;2022-11-13T13:41:23;11.10;99.90
32322;DHT22;61553;48.994;8.940;2022-11-13T13:46:32;11.10;99.90
32322;DHT22;61553;48.994;8.940;2022-11-13T13:49:04;11.20;99.90
32322;DHT22;61553;48.994;8.940;2022-11-13T13:51:52;11.20;99.90
32322;DHT22;61553;48.994;8.940;2022-11-13T13:54:23;11.20;99.90
32322;DHT22;61553;48.994;8.940;2022-11-13T13:56:49;11.20;99.90
32322;DHT22;61553;48.994;8.940;2022-11-13T13:59:29;11.20;99.90
32322;DHT22;61553;48.994;8.940;2022-11-13T14:01:58;11.30;99.90
32322;DHT22;61553;48.994;8.940;2022-11-13T14:04:26;11.30;99.90
32322;DHT22;61553;48.994;8.940;2022-11-13T14:06:57;11.20;99.90
32322;DHT22;61553;48.994;8.940;2022-11-13T14:09:25;11.20;99.90
32322;DHT22;61553;48.994;8.940;2022-11-13T14:11:58;11.20;99.90
32322;DHT22;61553;48.994;8.940;2022-11-13T14:14:24;11.20;99.90
32322;DHT22;61553;48.994;8.940;2022-11-13T14:16:51;11.20;99.90
32322;DHT22;61553;48.994;8.940;2022-11-13T14:19:18;11.20;99.90
32322;DHT22;61553;48.994;8.940;2022-11-13T14:21:44;11.10;99.90
32322;DHT22;61553;48.994;8.940;2022-11-13T14:24:42;11.10;99.90
32322;DHT22;61553;48.994;8.940;2022-11-13T14:27:13;11.00;99.90
32322;DHT22;61553;48.994;8.940;2022-11-13T14:29:55;10.90;99.90
32322;DHT22;61553;48.994;8.940;2022-11-13T14:32:33;10.90;99.90
32322;DHT22;61553;48.994;8.940;2022-11-13T14:35:04;10.80;99.90
32322;DHT22;61553;48.994;8.940;2022-11-13T14:37:36;10.80;99.90
32322;DHT22;61553;48.994;8.940;2022-11-13T14:40:10;10.70;99.90
32322;DHT22;61553;48.994;8.940;2022-11-13T14:42:43;10.60;99.90
32322;DHT22;61553;48.994;8.940;2022-11-13T14:48:00;10.30;99.90
32322;DHT22;61553;48.994;8.940;2022-11-13T14:50:28;10.20;99.90
32322;DHT22;61553;48.994;8.940;2022-11-13T14:55:30;9.90;99.90
32322;DHT22;61553;48.994;8.940;2022-11-13T14:57:56;9.80;99.90
32322;DHT22;61553;48.994;8.940;2022-11-13T15:00:28;9.60;99.90
32322;DHT22;61553;48.994;8.940;2022-11-13T15:02:54;9.50;99.90
32322;DHT22;61553;48.994;8.940;2022-11-13T15:05:19;9.40;99.90
32322;DHT22;61553;48.994;8.940;2022-11-13T15:07:45;9.30;99.90
32322;DHT22;61553;48.994;8.940;2022-11-13T15:10:14;9.30;99.90
32322;DHT22;61553;48.994;8.940;2022-11-13T15:12:40;9.20;99.90
32322;DHT22;61553;48.994;8.940;2022-11-13T15:15:18;9.10;99.90
32322;DHT22;61553;48.994;8.940;2022-11-13T15:17:46;9.00;99.90
32322;DHT22;61553;48.994;8.940;2022-11-13T15:20:16;8.80;99.90
32322;DHT22;61553;48.994;8.940;2022-11-13T15:22:42;8.60;99.90
32322;DHT22;61553;48.994;8.940;2022-11-13T15:25:26;8.50;99.90
32322;DHT22;61553;48.994;8.940;2022-11-13T15:27:52;8.20;99.90
32322;DHT22;61553;48.994;8.940;2022-11-13T15:30:18;8.10;99.90
32322;DHT22;61553;48.994;8.940;2022-11-13T15:32:44;7.90;99.90
32322;DHT22;61553;48.994;8.940;2022-11-13T15:35:15;7.80;99.90
32322;DHT22;61553;48.994;8.940;2022-11-13T15:37:41;7.60;99.90
32322;DHT22;61553;48.994;8.940;2022-11-13T15:40:07;7.40;99.90
32322;DHT22;61553;48.994;8.940;2022-11-13T15:42:34;7.30;99.90
32322;DHT22;61553;48.994;8.940;2022-11-13T15:45:01;7.20;99.90
32322;DHT22;61553;48.994;8.940;2022-11-13T15:47:29;7.10;99.90
32322;DHT22;61553;48.994;8.940;2022-11-13T15:49:55;7.00;99.90
32322;DHT22;61553;48.994;8.940;2022-11-13T15:52:22;6.80;99.90
32322;DHT22;61553;48.994;8.940;2022-11-13T15:54:48;6.60;99.90
32322;DHT22;61553;48.994;8.940;2022-11-13T15:57:32;6.50;99.90
32322;DHT22;61553;48.994;8.940;2022-11-13T15:59:58;6.30;99.90
32322;DHT22;61553;48.994;8.940;2022-11-13T16:02:23;6.10;99.90
32322;DHT22;61553;48.994;8.940;2022-11-13T16:04:49;6.00;99.90
32322;DHT22;61553;48.994;8.940;2022-11-13T16:07:29;5.80;99.90
32322;DHT22;61553;48.994;8.940;2022-11-13T16:09:56;5.70;99.90
32322;DHT22;61553;48.994;8.940;2022-11-13T16:12:21;5.50;99.90
32322;DHT22;61553;48.994;8.940;2022-11-13T16:14:47;5.40;99.90
32322;DHT22;61553;48.994;8.940;2022-11-13T16:17:13;5.30;99.90
32322;DHT22;61553;48.994;8.940;2022-11-13T16:19:41;5.20;99.90
32322;DHT22;61553;48.994;8.940;2022-11-13T16:22:24;5.10;99.90
32322;DHT22;61553;48.994;8.940;2022-11-13T16:24:50;5.00;99.90
32322;DHT22;61553;48.994;8.940;2022-11-13T16:27:25;5.00;99.90
32322;DHT22;61553;48.994;8.940;2022-11-13T16:29:52;4.80;99.90
32322;DHT22;61553;48.994;8.940;2022-11-13T16:32:18;4.70;99.90
32322;DHT22;61553;48.994;8.940;2022-11-13T16:34:45;4.70;99.90
32322;DHT22;61553;48.994;8.940;2022-11-13T16:37:19;4.60;99.90
32322;DHT22;61553;48.994;8.940;2022-11-13T16:39:45;4.60;99.90
32322;DHT22;61553;48.994;8.940;2022-11-13T16:42:11;4.60;99.90
32322;DHT22;61553;48.994;8.940;2022-11-13T16:44:38;4.50;99.90
32322;DHT22;61553;48.994;8.940;2022-11-13T16:47:20;4.40;99.90
32322;DHT22;61553;48.994;8.940;2022-11-13T16:49:47;4.30;99.90
32322;DHT22;61553;48.994;8.940;2022-11-13T16:52:12;4.20;99.90
32322;DHT22;61553;48.994;8.940;2022-11-13T16:54:38;4.10;99.90
32322;DHT22;61553;48.994;8.940;2022-11-13T16:57:03;4.00;99.90
32322;DHT22;61553;48.994;8.940;2022-11-13T16:59:29;4.00;99.90
32322;DHT22;61553;48.994;8.940;2022-11-13T17:01:55;3.90;99.90
32322;DHT22;61553;48.994;8.940;2022-11-13T17:04:21;3.90;99.90
32322;DHT22;61553;48.994;8.940;2022-11-13T17:06:46;3.80;99.90
32322;DHT22;61553;48.994;8.940;2022-11-13T17:09:12;3.80;99.90
32322;DHT22;61553;48.994;8.940;2022-11-13T17:11:38;3.70;99.90
32322;DHT22;61553;48.994;8.940;2022-11-13T17:14:04;3.60;99.90